Lahore Weather



Lahore's Current Weather

Temprature 19.91o scattered clouds

scattered clouds

Rain: 0 %

Min Temprature19o
Max Temprature21o
Humidity37
Wind Speed3.6 m/h
Sun Rise06:36:27
Sun Set17:56:02
Current Time: 23-Feb-2019 16:10:57
Lat/Lon: 31.52, 74.33




Lahore's Geo Location




Lahore's Weather Forecast

Time Overall Temp Min Temp Max Temp Humidity Wind Speed Rain
23-Feb-2019 (Sat)
17:00:00 clear sky 18.720 18.199 18.720 63 2.31 m/h 0 %
20:00:00 clear sky 12.720 12.333 12.720 72 1.27 m/h 0 %
23:00:00 clear sky 10.200 9.940 10.200 80 0.47 m/h 0 %
24-Feb-2019 (Sun)
02:00:00 clear sky 8.890 8.760 8.890 82 1.16 m/h 0 %
05:00:00 clear sky 7.917 7.917 7.917 83 1.26 m/h 0 %
08:00:00 clear sky 10.003 10.003 10.003 82 1.21 m/h 0 %
11:00:00 clear sky 17.949 17.949 17.949 89 1.96 m/h 0 %
14:00:00 clear sky 19.981 19.981 19.981 81 2.42 m/h 0 %
17:00:00 clear sky 19.046 19.046 19.046 64 1.5 m/h 0 %
20:00:00 clear sky 13.068 13.068 13.068 73 1.26 m/h 0 %
23:00:00 few clouds 10.561 10.561 10.561 79 1.21 m/h 0 %
25-Feb-2019 (Mon)
02:00:00 few clouds 9.230 9.230 9.230 80 1.27 m/h 0 %
05:00:00 broken clouds 8.827 8.827 8.827 82 0.36 m/h 0 %
08:00:00 light rain 10.220 10.220 10.220 87 1.52 m/h 2 %
11:00:00 light rain 14.597 14.597 14.597 88 2.96 m/h 19 %
14:00:00 light rain 16.123 16.123 16.123 89 3.32 m/h 55 %
17:00:00 light rain 16.487 16.487 16.487 75 3.01 m/h 5 %
20:00:00 light rain 10.573 10.573 10.573 93 3.01 m/h 168 %
23:00:00 light rain 10.217 10.217 10.217 94 2.56 m/h 218 %
26-Feb-2019 (Tue)
02:00:00 light rain 10.301 10.301 10.301 95 3.86 m/h 183 %
05:00:00 few clouds 9.472 9.472 9.472 91 3.56 m/h 0 %
08:00:00 broken clouds 10.057 10.057 10.057 94 3.57 m/h 0 %
11:00:00 overcast clouds 13.367 13.367 13.367 100 3.22 m/h 0 %
14:00:00 light rain 13.921 13.921 13.921 96 3.91 m/h 11 %
17:00:00 light rain 12.739 12.739 12.739 99 2.76 m/h 42 %
20:00:00 light rain 11.261 11.261 11.261 97 2.12 m/h 180 %
23:00:00 light rain 10.623 10.623 10.623 96 1.67 m/h 11 %
27-Feb-2019 (Wed)
02:00:00 moderate rain 9.756 9.756 9.756 98 2.06 m/h 322 %
05:00:00 light rain 8.894 8.894 8.894 96 1.35 m/h 58 %
08:00:00 light rain 9.665 9.665 9.665 98 1.82 m/h 9 %
11:00:00 light rain 12.745 12.745 12.745 100 2.26 m/h 6 %
14:00:00 scattered clouds 14.661 14.661 14.661 100 2.15 m/h 0 %
17:00:00 light rain 14.248 14.248 14.248 93 2.71 m/h 2 %
20:00:00 light rain 12.092 12.092 12.092 91 1.87 m/h 1 %
23:00:00 few clouds 9.566 9.566 9.566 90 1.42 m/h 0 %
28-Feb-2019 (Thu)
02:00:00 scattered clouds 8.166 8.166 8.166 88 2.01 m/h 0 %
05:00:00 broken clouds 7.513 7.513 7.513 90 1.21 m/h 0 %
08:00:00 scattered clouds 9.265 9.265 9.265 89 1.36 m/h 0 %
11:00:00 overcast clouds 13.122 13.122 13.122 100 2.06 m/h 0 %
14:00:00 overcast clouds 13.879 13.879 13.879 90 2.67 m/h 0 %


Lahore's Tourist Spots

Museums in Lahore

Historical Places in Lahore

Famous Cities (60)